Sonic Adventure (DX): Overall Rankings

Records: Times | Rings | Scores | Races | Bosses | Freestyle
Leaders: Times | Rings | Scores | Races | Bosses | Freestyle | Overall
Rank Player Percent Points Date Grade
1 Sonicspeedruner 98.3% 281 08-30-16 S
2 Gamepro011 98.2% 297 08-30-16 A
3 DarkPolarNight 96.2% 630 08-30-16 A
4 Jawzun 93.5% 1086 08-30-16 A
5 Dashjump 92.1% 1320 08-30-16 A
6 DarkspinesSonic 90.3% 1621 08-30-16 A
7 Avento128bits 89.9% 1682 08-30-16 A
8 ike6252 89.8% 1700 08-30-16 A
9 F-Man 88.0% 2010 08-30-16 A
10 Coolfansonic 85.3% 2456 08-30-16 A
11 HyperSonic7701 84.7% 2556 08-30-16 A
12 yoshifan 83.0% 2850 08-30-16 A
13 frankoredstrato 82.6% 2903 08-30-16 A
14 TheRealShadnic 82.4% 2945 08-30-16 A
15 francisco 81.7% 3054 08-30-16 A
16 Marth 81.4% 3114 08-30-16 A
17 InferSaime 80.1% 3324 08-30-16 A
18 PfoSonic 79.7% 3402 08-30-16 B
19 Paragod 79.3% 3457 08-30-16 B
20 THC98 78.6% 3576 08-30-16 B
21 Stefan 76.0% 4013 08-30-16 B
22 RPGnutter 73.9% 4360 08-30-16 B
23 bertin 73.7% 4394 08-30-16 B
24 sonicam 71.7% 4742 08-30-16 B
25 drminus 70.4% 4960 08-30-16 B
26 xXMegaManXx 70.1% 5011 08-30-16 B
27 Combo 65.7% 5739 08-30-16 B
28 SkyLights 64.6% 5933 08-30-16 B
29 Diamond 62.5% 6283 08-30-16 B
30 Auriman1 60.6% 6605 08-30-16 B
31 GerbilSoft 60.5% 6621 08-30-16 B
32 OmegaDJ 60.4% 6623 08-30-16 B
33 magnum12 59.6% 6765 08-30-16 C
34 Thorn 57.5% 7114 08-30-16 C
35 P1 Pause 57.3% 7149 08-30-16 C
36 mike89 56.2% 7338 08-30-16 C
37 Dave Cramer 54.2% 7663 08-30-16 C
37 Groudon199 54.2% 7663 08-30-16 C
39 chainchumper 54.1% 7681 08-30-16 C
40 Parax 53.4% 7813 08-30-16 C
41 Shadow Jacky 53.2% 7836 08-30-16 C
42 Psymar 48.0% 8712 08-30-16 C
43 Arch 47.2% 8837 08-30-16 C
44 Chao_Fan 46.4% 8976 08-30-16 C
45 mauserman 45.4% 9147 08-30-16 C
46 Quartz 45.3% 9163 08-30-16 C
47 teamblackarms 44.5% 9300 08-30-16 C
48 Psyknux 43.4% 9475 08-30-16 C
49 James_Bertolli 43.3% 9492 08-30-16 C
50 NintenDan 43.0% 9545 08-30-16 C
51 Webber3000 42.6% 9623 08-30-16 C
52 Turbos 42.4% 9645 08-30-16 C
53 Cream147 42.0% 9720 08-30-16 C
54 Ring Rush 42.0% 9724 08-30-16 C
55 videogamemaster777 41.9% 9736 08-30-16 C
56 Siavash Tazari 41.6% 9779 08-30-16 C
57 Fr3nZy 41.5% 9800 08-30-16 C
58 buddychaos0415 41.1% 9861 08-30-16 C
59 SadisticMystic 40.3% 9996 08-30-16 C
60 eggFL 39.8% 10093 08-30-16 D
61 Redd 38.8% 10254 08-30-16 D
62 SB737 38.2% 10357 08-30-16 D
63 supersonic465 37.4% 10489 08-30-16 D
64 supersonicfan 37.1% 10541 08-30-16 D
65 FuzZerd 35.8% 10754 08-30-16 D
66 Aitamen 35.3% 10835 08-30-16 D
67 elecmouse101 35.0% 10885 08-30-16 D
68 danieldude 34.8% 10919 08-30-16 D
69 metanightmare22 33.8% 11096 08-30-16 D
70 Austinf 33.7% 11104 08-30-16 D
71 dabestgamer 33.4% 11164 08-30-16 D
72 Cyan Ryan 33.3% 11171 08-30-16 D
73 MiStEr_ShAoLiN 33.2% 11192 08-30-16 D
74 Andrea Ritsu 32.3% 11336 08-30-16 D
75 itsPersonnal 31.9% 11404 08-30-16 D
76 Cybrax 31.2% 11532 08-30-16 D
77 SilvertheAlmighty 31.1% 11538 08-30-16 D
78 VMU Player Banned 29.1% 11879 08-30-16 D
79 Staf 28.9% 11917 08-30-16 D
80 Nimrod 28.8% 11935 08-30-16 D
81 ethmar 28.5% 11973 08-30-16 D
82 Omega Rafael Santos 28.5% 11982 08-30-16 D
83 The T 28.5% 11987 08-30-16 D
84 EngiNerd 28.2% 12022 08-30-16 D
85 lordmetalsonic 27.7% 12115 08-30-16 D
86 welldooder64 27.1% 12218 08-30-16 D
87 Hipertails12 27.0% 12225 08-30-16 D
88 GreatStar 26.8% 12262 08-30-16 D
89 The Great Lord Mick 26.7% 12277 08-30-16 D
90 Sondow 26.7% 12283 08-30-16 D
91 LinksDarkArrows 26.5% 12312 08-30-16 D
92 Mastakirby 26.4% 12325 08-30-16 D
93 Skylace 25.4% 12492 08-30-16 D
94 Rolken 24.1% 12725 08-30-16 D
95 Kogen Player Banned 22.3% 13018 08-30-16 D
96 Xia 22.2% 13030 08-30-16 D
97 Spinballwizard 22.2% 13031 08-30-16 D
98 a_moustache 22.2% 13039 08-30-16 D
99 Twilisailor 21.8% 13106 08-30-16 D
100 f0rever_zer0 21.8% 13108 08-30-16 D
101 Cutiefox 21.6% 13144 08-30-16 D
102 Don 21.5% 13157 08-30-16 D
103 Game_Complete 21.4% 13172 08-30-16 D
104 Miles9999 21.3% 13187 08-30-16 D
105 andres430 20.9% 13248 08-30-16 D
106 Cruizer 20.7% 13290 08-30-16 D
107 iSonicKid2K 20.6% 13306 08-30-16 D
108 SADXTryHard 20.3% 13363 08-30-16 D
109 GarnetPrincess 19.9% 13429 08-30-16 E
110 AxlThunder 19.1% 13557 08-30-16 E
111 knuckles_sonic8 18.7% 13617 08-30-16 E
112 The Knuckles Chao 18.4% 13680 08-30-16 E
113 KinkyCadence 18.3% 13689 08-30-16 E
114 Team_Yoshi 18.0% 13739 08-30-16 E
115 Termon 17.9% 13752 08-30-16 E
116 LittleBigness 17.9% 13758 08-30-16 E
117 SonicWinDX 17.7% 13791 08-30-16 E
118 FoxBoy 17.7% 13797 08-30-16 E
119 Drakodan 16.9% 13919 08-30-16 E
120 Sonic Singularity 15.9% 14087 08-30-16 E
121 Pokemonmaster888 15.7% 14121 08-30-16 E
122 BigAL49 14.8% 14278 08-30-16 E
123 SilverSonic 14.6% 14310 08-30-16 E
124 MPit08 14.6% 14311 08-30-16 E
125 WeegeeZV 14.3% 14355 08-30-16 E
126 koinu93 14.1% 14388 08-30-16 E
127 Mo Player Banned 14.1% 14390 08-30-16 E
128 HyperSonic64 13.7% 14454 08-30-16 E
129 Cod4Scopes 13.7% 14460 08-30-16 E
130 booo95 13.6% 14478 08-30-16 E
131 Jerzia 13.5% 14501 08-30-16 E
132 paulie9990 13.3% 14522 08-30-16 E
133 Chawkk 13.3% 14525 08-30-16 E
134 SuperSonic101 13.1% 14566 08-30-16 E
135 Hunters13 13.1% 14568 08-30-16 E
136 Maxinfamily 13.0% 14585 08-30-16 E
137 Kanimayo_Jp 12.7% 14635 08-30-16 E
137 LilZero 12.7% 14635 08-30-16 E
139 BrokenArthritis 12.5% 14658 08-30-16 E
140 PsyBorg 12.4% 14678 08-30-16 E
141 Flying Fox 12.4% 14681 08-30-16 E
142 Therio 12.1% 14733 08-30-16 E
143 sonicspeed 12.0% 14751 08-30-16 E
144 douglas 11.8% 14776 08-30-16 E
145 Matt_TY 11.5% 14835 08-30-16 E
146 thewaytodawnnn 11.4% 14846 08-30-16 E
147 Cooljay 10.9% 14929 08-30-16 E
148 SuperBlitzCraig 10.7% 14958 08-30-16 E
149 joecoolgames 10.7% 14960 08-30-16 E
150 SeaWolf 10.7% 14964 08-30-16 E
151 videogamer1014 10.5% 14998 08-30-16 E
152 AC-Tygo 10.3% 15037 08-30-16 E
153 welshmoose05 10.2% 15049 08-30-16 E
154 OddCook 10.0% 15083 08-30-16 E
155 crazy1993 9.9% 15099 08-30-16 E
156 TFEC Headshot 9.9% 15100 08-30-16 E
157 Mcshuggets 9.7% 15132 08-30-16 E
158 niscool 9.4% 15181 08-30-16 E
159 imazor017 9.3% 15192 08-30-16 E
160 Mariobutch 9.2% 15213 08-30-16 E
161 nuckrieg 9.2% 15215 08-30-16 E
162 SonicAD 9.2% 15219 08-30-16 E
163 Shadowthegreat 9.1% 15236 08-30-16 E
164 SirTobbii 9.1% 15238 08-30-16 E
165 superjupi 9.1% 15241 08-30-16 E
166 sonamyfan666 8.7% 15294 08-30-16 E
167 iarebored 8.7% 15307 08-30-16 E
168 SaviourDC 8.6% 15319 08-30-16 E
169 SonicKnuckles 8.6% 15320 08-30-16 E
170 Werey 8.3% 15372 08-30-16 E
171 adf 8.2% 15378 08-30-16 E
172 Megaman EXE565 8.0% 15413 08-30-16 E
173 ArcticDragon 7.7% 15473 08-30-16 E
174 Platformer 7.6% 15484 08-30-16 E
175 timpkmn89 7.5% 15503 08-30-16 E
176 FocusSight64 7.3% 15527 08-30-16 E
177 Swift Hobo 7.3% 15529 08-30-16 E
178 wheatrich 7.3% 15535 08-30-16 E
179 Rickyman48 7.1% 15560 08-30-16 E
180 KitsuneYamaro 7.0% 15578 08-30-16 E
181 Triseena 6.8% 15616 08-30-16 E
182 SonataSpinDash 6.7% 15642 08-30-16 E
183 CyberShadow 6.5% 15661 08-30-16 E
184 dShadow 6.5% 15662 08-30-16 E
185 slade23 6.5% 15671 08-30-16 E
186 Destroyer121121 6.5% 15673 08-30-16 E
186 Starlight Sable 6.5% 15673 08-30-16 E
188 IsisDazs 6.3% 15695 08-30-16 E
189 BlankTH 6.1% 15729 08-30-16 E
190 Monkeh 6.0% 15750 08-30-16 E
191 SonicU260 5.8% 15778 08-30-16 E
192 Richied 5.8% 15784 08-30-16 E
193 DaDude 5.7% 15797 08-30-16 E
194 Vicklaw 5.6% 15813 08-30-16 E
195 Zip 5.6% 15821 08-30-16 E
196 sonicd5 5.6% 15822 08-30-16 E
197 ALundstrom10 5.2% 15887 08-30-16 E
198 tal39h 5.2% 15892 08-30-16 E
199 VeritasDL 5.2% 15895 08-30-16 E
200 Badlex727 5.1% 15899 08-30-16 E
201 Kirbymon30 5.1% 15903 08-30-16 E
202 soniccoloursunleashed 5.0% 15928 08-30-16 E
203 Drflash55 4.9% 15932 08-30-16 E
204 Bass 4.8% 15948 08-30-16 E
205 neaolas 4.7% 15963 08-30-16 E
206 Yish 4.7% 15972 08-30-16 E
207 zapp 4.6% 15979 08-30-16 E
208 superiorsonic 4.6% 15987 08-30-16 E
208 UninspiredUsername 4.6% 15987 08-30-16 E
210 Sonicsuperstar1 4.6% 15993 08-30-16 E
211 gamefreak1292 4.5% 16005 08-30-16 E
212 Chaos_Overlord 4.2% 16053 08-30-16 E
213 TakaRikka 4.1% 16074 08-30-16 E
214 Valfore 4.0% 16087 08-30-16 E
215 ShinigamiMachine 3.8% 16115 08-30-16 E
216 N 3.8% 16124 08-30-16 E
217 Regano1000 3.8% 16127 08-30-16 E
218 MK 3.6% 16149 08-30-16 E
219 Ace747 3.6% 16158 08-30-16 E
220 Illidan 3.2% 16223 08-30-16 E
221 HHNNBBHHN 3.2% 16226 08-30-16 E
222 Venick409 3.1% 16233 08-30-16 E
223 Brian_pso 3.1% 16237 08-30-16 E
223 nman36 3.1% 16237 08-30-16 E
225 Sithwarrior26 3.1% 16238 08-30-16 E
226 Egor305 3.0% 16260 08-30-16 E
227 ingx24 2.9% 16264 08-30-16 E
228 TheChaosEmeraIds 2.9% 16267 08-30-16 E
229 SkyBon 2.9% 16272 08-30-16 E
230 Nickson98 2.9% 16273 08-30-16 E
231 Fozer 2.8% 16286 08-30-16 E
232 FSSRandomvids 2.8% 16293 08-30-16 E
233 Colomb_30 2.8% 16294 08-30-16 E
234 dekki1234 2.7% 16300 08-30-16 E
235 Aiko 2.7% 16310 08-30-16 E
236 sonic29887 2.7% 16312 08-30-16 E
237 TheUltraBlur 2.6% 16317 08-30-16 E
238 1stKirbyever 2.6% 16320 08-30-16 E
239 TimTH 2.6% 16330 08-30-16 E
240 Th4tN1nj4Turtl3 2.4% 16359 08-30-16 E
241 Cort_pso 2.3% 16366 08-30-16 E
242 Doom-9 2.3% 16375 08-30-16 E
242 ieatatsonic 2.3% 16375 08-30-16 E
244 Mariosonic15 2.3% 16378 08-30-16 E
245 HermitHelmet 2.1% 16400 08-30-16 E
245 MStitomix 2.1% 16400 08-30-16 E
247 Artie 2.1% 16414 08-30-16 E
248 Got4n 2.0% 16416 08-30-16 E
249 SuperSonic71087 2.0% 16422 08-30-16 E
250 Jose_15 2.0% 16427 08-30-16 E
251 Questionguy555 1.9% 16432 08-30-16 E
252 SuperSonicfan9595 1.9% 16446 08-30-16 E
253 djmat 1.8% 16449 08-30-16 E
254 sonicandamy Player Banned 1.7% 16469 08-30-16 E
255 LancexExWx 1.7% 16476 08-30-16 E
256 Paixii 1.7% 16477 08-30-16 E
257 Heroes_Hater 1.7% 16480 08-30-16 E
257 son1cgu1tar 1.7% 16480 08-30-16 E
259 BallzeH 1.6% 16492 08-30-16 E
260 Mankster101 1.6% 16498 08-30-16 E
261 BecauseWarAnvil 1.5% 16500 08-30-16 E
262 Jamixesa 1.5% 16503 08-30-16 E
263 Crydio 1.5% 16512 08-30-16 E
264 Shanekilz 1.4% 16518 08-30-16 E
265 SpiritDragon1995 1.4% 16519 08-30-16 E
266 ReuelBrony 1.4% 16525 08-30-16 E
267 MarewBFN 1.4% 16532 08-30-16 E
268 stanski 1.3% 16533 08-30-16 E
269 Sonique Hedgehog 1.3% 16539 08-30-16 E
270 p0ker 1.3% 16547 08-30-16 E
271 Blue Infamy 1.3% 16549 08-30-16 E
272 ErrortheCucco 1.2% 16560 08-30-16 E
273 Rikum22 1.2% 16563 08-30-16 E
274 Arthas 1.1% 16567 08-30-16 E
275 sonic1001 1.1% 16572 08-30-16 E
276 AJSIV 1.1% 16577 08-30-16 E
277 syco1098 1.1% 16579 08-30-16 E
277 WingedInsignia 1.1% 16579 08-30-16 E
279 Sonic the Hedgehod16 1.1% 16582 08-30-16 E
280 Calfd 1.0% 16590 08-30-16 E
280 sonicfan9 1.0% 16590 08-30-16 E
282 BlackArmsShadow 0.9% 16600 08-30-16 E
283 themachoman202 0.9% 16603 08-30-16 E
284 shadowblast63 Player Banned 0.9% 16610 08-30-16 E
285 Greham Adelphis 0.9% 16612 08-30-16 E
286 Fivavoa 0.9% 16613 08-30-16 E
286 Mr. Jones 0.9% 16613 08-30-16 E
288 darkstarblaze 0.9% 16614 08-30-16 E
289 MastaToken 0.9% 16615 08-30-16 E
290 arcfx1985 0.9% 16616 08-30-16 E
291 Ben1502 0.8% 16617 08-30-16 E
292 ptorflaxendrosis 0.8% 16618 08-30-16 E
293 TommyeAsY 0.8% 16619 08-30-16 E
294 FlandreScarlet9999vr 0.8% 16623 08-30-16 E
295 Gvozdevik 0.8% 16624 08-30-16 E
296 Knuckles 0.8% 16626 08-30-16 E
296 Zeldocto 0.8% 16626 08-30-16 E
298 BeeAwwb 0.8% 16630 08-30-16 E
299 KaM Mark MaK 0.8% 16631 08-30-16 E
300 ShadouZaHejjihoggu 0.7% 16638 08-30-16 E
301 Sonic The Star 0.7% 16645 08-30-16 E
302 darkersupershadic 0.7% 16646 08-30-16 E
302 Sonic62 0.7% 16646 08-30-16 E
304 Sarger001 0.7% 16649 08-30-16 E
305 dragondragon18 0.6% 16651 08-30-16 E
306 Grady219 0.6% 16652 08-30-16 E
306 Sogeking 0.6% 16652 08-30-16 E
308 Shadygamerfreak 0.6% 16653 08-30-16 E
308 SonicK100 0.6% 16653 08-30-16 E
310 Jawaah 0.6% 16658 08-30-16 E
311 Antek 0.6% 16662 08-30-16 E
312 Klaus 0.6% 16664 08-30-16 E
313 SilverK 0.6% 16665 08-30-16 E
314 BioShadow 0.5% 16667 08-30-16 E
315 SpinDashMaster 0.5% 16672 08-30-16 E
316 Videogamer123 0.5% 16675 08-30-16 E
317 oTaiIilLsS 0.4% 16688 08-30-16 E
318 isaihtb11 0.4% 16689 08-30-16 E
319 OhNoes! 0.4% 16691 08-30-16 E
320 zaktu40 0.4% 16692 08-30-16 E
321 gaara1234 0.4% 16695 08-30-16 E
321 Mad Andy 0.4% 16695 08-30-16 E
321 S-MS32X-S 0.4% 16695 08-30-16 E
324 gamed00d 0.4% 16699 08-30-16 E
325 Mister_Slick 0.3% 16706 08-30-16 E
326 Sonic06Fan 0.3% 16709 08-30-16 E
327 Rush Hero 0.3% 16711 08-30-16 E
328 SonicMega167 0.3% 16716 08-30-16 E
329 Iwannabelink 0.2% 16717 08-30-16 E
330 sonknuck23 0.2% 16721 08-30-16 E
331 DanielTheFalcon 0.2% 16729 08-30-16 E
331 gamer1245 0.2% 16729 08-30-16 E
333 Burningskull123 0.1% 16735 08-30-16 E
334 Sonicontherun 0.1% 16746 08-30-16 E
335 Lil_Dude 0.1% 16750 08-30-16 E
336 antiwwe 0.0% 16752 08-30-16 E
337 Genuine Hedgehog 0.0% 16756 08-30-16 E
338 Cbwade15 0.0% 16757 08-30-16 E
339 Tyrouble 0.0% 16760 08-30-16 E
340 MegabombBlade 0.0% 16767 08-30-16 E
340 neji_hyuuga 0.0% 16767 08-30-16 E
340 Over 0.0% 16767 08-30-16 E
340 sdj6707 Player Banned 0.0% 16767 08-30-16 E
340 Tran Sonic Fan Player Banned 0.0% 16767 08-30-16 E

This page is using the New Data Table System. [FUTURE]


-- Back to Normal Skin --
Game ID: 3 | Category ID: 10
Hits: 67,537 | Hits This Month: 228 | DB Calls: 16 | Mem Usage: 5.46 MB | Time: 0.45s | Printable

The Sonic Center v3.9 Hax in Progress
Copyright 2003-2011 by The Sonic Center Team.